CMA CGM Opal — A8RV3 — position and weather

sailwx.info

Track history (hours):
 
Tides and Currents Weather Stations Pressure Air Temp Water Temp Dewpoint Dewpoint Depression Visibility Wind Speed Wind Dir Waves Ship Positions

CMA CGM Opal

Last reported at 2017-Sep-22 02:00 UTC. Time now 2017-Sep-22 02:49 UTC.
Position N 04°14' W 002°52'.

Length 258 m; draft 7.6 m.

Type: Ship (hazmat cat C). MMSI: 636014168.

Date/timePositionNaut miles runAvg speedWind from/ knotsBaromVisibWave heightAir tempDewpointWater temp
2017-Sep-22 02:00N 04°14' W 002°52'918.5
2017-Sep-22 01:30N 04°11' W 002°43'1018.4
2017-Sep-22 00:58N 04°07' W 002°34'918.8
2017-Sep-22 00:28N 04°03' W 002°25'1919.1
2017-Sep-21 23:27N 03°56' W 002°07'  
2017-Sep-13 03:09N 03°49' W 002°29'815.5
2017-Sep-13 02:37N 03°52' W 002°37'215.6
2017-Sep-13 02:29N 03°52' W 002°39'1015.6
2017-Sep-13 01:50N 03°55' W 002°49'515.6
2017-Sep-13 01:29N 03°57' W 002°54'815.5
2017-Sep-13 00:58N 03°59' W 003°01'914.9
2017-Sep-13 00:23N 04°05' W 003°08'714.9
2017-Sep-12 23:54N 04°10' W 003°13'614.8
2017-Sep-12 23:29N 04°15' W 003°16'714.5
2017-Sep-12 22:59N 04°21' W 003°21'814.2
2017-Sep-12 22:28N 04°27' W 003°25'  
Track history (hours):
 
Tides and Currents Weather Stations Pressure Air Temp Water Temp Dewpoint Dewpoint Depression Visibility Wind Speed Wind Dir Waves Ship Positions

CMA CGM Opal

Last reported at 2017-Sep-22 02:00 UTC. Time now 2017-Sep-22 02:49 UTC.
Position N 04°14' W 002°52'.

Length 258 m; draft 7.6 m.

Type: Ship (hazmat cat C). MMSI: 636014168.

Date/timePositionNaut miles runAvg speedWind from/ knotsBaromVisibWave heightAir tempDewpointWater temp
2017-Sep-22 02:00N 04°14' W 002°52'918.5
2017-Sep-22 01:30N 04°11' W 002°43'1018.4
2017-Sep-22 00:58N 04°07' W 002°34'918.8
2017-Sep-22 00:28N 04°03' W 002°25'1919.1
2017-Sep-21 23:27N 03°56' W 002°07'  
2017-Sep-13 03:09N 03°49' W 002°29'815.5
2017-Sep-13 02:37N 03°52' W 002°37'215.6
2017-Sep-13 02:29N 03°52' W 002°39'1015.6
2017-Sep-13 01:50N 03°55' W 002°49'515.6
2017-Sep-13 01:29N 03°57' W 002°54'815.5
2017-Sep-13 00:58N 03°59' W 003°01'914.9
2017-Sep-13 00:23N 04°05' W 003°08'714.9
2017-Sep-12 23:54N 04°10' W 003°13'614.8
2017-Sep-12 23:29N 04°15' W 003°16'714.5
2017-Sep-12 22:59N 04°21' W 003°21'814.2
2017-Sep-12 22:28N 04°27' W 003°25'  

Dump ship's entire track history